Time;durP1;ratioP1;P1;durP2;ratioP2;P2;SDS_P1;SDS_P2;PMS_P1;PMS_P2;Temp;Humidity;BMP_temperature;BMP_pressure;BME280_temperature;BME280_humidity;BME280_pressure;Samples;Min_cycle;Max_cycle;Signal;HPM_P1;HPM_P2
2022/01/25 00:29:14;;;;;;;33.95;21.45;;;;;;;;;;5048494;28;20302;-80
2022/01/25 00:31:37;;;;;;;32.08;21.17;;;;;;;;;;5042423;28;20225;-80
2022/01/25 00:34:03;;;;;;;31.75;19.63;;;;;;;;;;5043387;28;20186;-79
2022/01/25 00:36:30;;;;;;;29.95;20.58;;;;;;;;;;5044107;28;20177;-81
2022/01/25 00:38:56;;;;;;;32.42;21.42;;;;;;;;;;5043175;28;20189;-81
2022/01/25 00:41:23;;;;;;;31.25;19.83;;;;;;;;;;5043162;28;20253;-81
2022/01/25 00:43:49;;;;;;;32.92;23.00;;;;;;;;;;5043595;28;20190;-81
2022/01/25 00:46:16;;;;;;;32.00;22.65;;;;;;;;;;5044166;28;20705;-81
2022/01/25 00:48:46;;;;;;;35.33;22.52;;;;;;;;;;5057499;28;20208;-82
2022/01/25 00:54:14;;;;;;;38.40;21.17;;;;;;;;;;5040168;28;20186;-81
2022/01/25 00:56:43;;;;;;;33.28;20.75;;;;;;;;;;5042379;28;20241;-82
2022/01/25 00:59:10;;;;;;;35.20;22.77;;;;;;;;;;5042536;28;20192;-82
2022/01/25 01:01:37;;;;;;;32.17;20.75;;;;;;;;;;5043505;28;20190;-81
2022/01/25 01:04:03;;;;;;;33.00;19.77;;;;;;;;;;5043487;28;20201;-80
2022/01/25 01:06:29;;;;;;;31.75;21.60;;;;;;;;;;5046094;28;20213;-81
2022/01/25 01:08:56;;;;;;;36.67;19.98;;;;;;;;;;5042035;28;20233;-81
2022/01/25 01:11:28;;;;;;;33.08;21.15;;;;;;;;;;5042635;28;20186;-81
2022/01/25 01:35:46;;;;;;;31.77;20.08;;;;;;;;;;5044006;28;20173;-80
2022/01/25 01:45:55;;;;;;;31.92;20.05;;;;;;;;;;5040446;28;20185;-80
2022/01/25 01:48:58;;;;;;;32.15;19.70;;;;;;;;;;5041384;28;20207;-80
2022/01/25 01:51:18;;;;;;;29.92;21.60;;;;;;;;;;5040839;28;20663;-81
2022/01/25 01:53:45;;;;;;;30.73;19.55;;;;;;;;;;5042069;28;20649;-81
2022/01/25 01:56:11;;;;;;;32.72;19.35;;;;;;;;;;5039799;28;20198;-81
2022/01/25 01:58:38;;;;;;;31.35;17.77;;;;;;;;;;5040458;28;20188;-81
2022/01/25 02:01:08;;;;;;;30.38;18.20;;;;;;;;;;5041212;28;20177;-79
2022/01/25 02:03:34;;;;;;;25.40;15.60;;;;;;;;;;5041709;28;20174;-81
2022/01/25 02:06:00;;;;;;;28.08;16.95;;;;;;;;;;5042656;28;20177;-81
2022/01/25 02:08:26;;;;;;;26.15;18.20;;;;;;;;;;5043443;28;20225;-81
2022/01/25 02:10:52;;;;;;;23.60;17.75;;;;;;;;;;5040448;28;20213;-81
2022/01/25 02:13:18;;;;;;;37.65;18.48;;;;;;;;;;5041962;28;20292;-82
2022/01/25 02:15:46;;;;;;;25.63;16.45;;;;;;;;;;5041994;28;20174;-82
2022/01/25 02:23:45;;;;;;;21.13;15.27;;;;;;;;;;5038949;28;20192;-83
2022/01/25 02:26:11;;;;;;;27.27;15.85;;;;;;;;;;5040840;28;20189;-83
2022/01/25 02:28:39;;;;;;;27.27;18.63;;;;;;;;;;5038846;28;20386;-83
2022/01/25 02:31:06;;;;;;;26.08;17.17;;;;;;;;;;5041328;28;20183;-82
2022/01/25 02:33:32;;;;;;;27.48;17.80;;;;;;;;;;5040096;28;20178;-80
2022/01/25 02:35:59;;;;;;;26.35;15.82;;;;;;;;;;5039758;28;20189;-80
2022/01/25 02:38:26;;;;;;;25.65;14.90;;;;;;;;;;5043173;28;20220;-80
2022/01/25 02:40:53;;;;;;;23.02;14.48;;;;;;;;;;5041535;28;20193;-80
2022/01/25 02:43:20;;;;;;;25.33;14.65;;;;;;;;;;5040790;28;20194;-80
2022/01/25 02:45:52;;;;;;;20.98;14.40;;;;;;;;;;5041346;28;20182;-81
2022/01/25 02:48:30;;;;;;;20.52;12.40;;;;;;;;;;5039924;28;20208;-80
2022/01/25 02:51:00;;;;;;;24.42;13.32;;;;;;;;;;5040715;28;20208;-80
2022/01/25 02:53:27;;;;;;;20.27;12.55;;;;;;;;;;5040388;28;20242;-80
2022/01/25 02:55:53;;;;;;;24.55;12.70;;;;;;;;;;5040525;28;20267;-79
2022/01/25 02:58:19;;;;;;;20.90;13.20;;;;;;;;;;5040946;28;20194;-79
2022/01/25 03:00:45;;;;;;;27.80;14.57;;;;;;;;;;5041422;28;20174;-79
2022/01/25 03:03:11;;;;;;;21.33;12.23;;;;;;;;;;5039517;28;20190;-79
2022/01/25 03:05:37;;;;;;;18.58;11.82;;;;;;;;;;5039015;28;20186;-80
2022/01/25 03:08:03;;;;;;;18.20;10.80;;;;;;;;;;5038865;28;20217;-79
2022/01/25 03:10:37;;;;;;;21.50;13.35;;;;;;;;;;5043070;28;20177;-79
2022/01/25 03:13:05;;;;;;;19.25;10.90;;;;;;;;;;5041703;28;20178;-79
2022/01/25 03:15:54;;;;;;;17.98;11.75;;;;;;;;;;5041393;28;20179;-80
2022/01/25 03:21:03;;;;;;;17.33;10.27;;;;;;;;;;5038117;28;20204;-79
2022/01/25 03:23:31;;;;;;;21.50;12.77;;;;;;;;;;5040270;28;20627;-81
2022/01/25 03:25:57;;;;;;;23.50;11.35;;;;;;;;;;5039525;28;20204;-79
2022/01/25 03:28:23;;;;;;;18.02;11.82;;;;;;;;;;5023805;28;20206;-81
2022/01/25 03:30:49;;;;;;;19.88;12.15;;;;;;;;;;5042125;28;20177;-81
2022/01/25 03:33:16;;;;;;;20.00;10.20;;;;;;;;;;5039200;28;20220;-81
2022/01/25 03:35:42;;;;;;;22.38;12.05;;;;;;;;;;5041147;28;20555;-81
2022/01/25 03:38:08;;;;;;;18.65;11.18;;;;;;;;;;5041483;28;20194;-81
2022/01/25 03:40:34;;;;;;;18.38;12.15;;;;;;;;;;5038286;28;20179;-81
2022/01/25 03:43:03;;;;;;;23.10;13.30;;;;;;;;;;5039929;28;20188;-81
2022/01/25 03:45:32;;;;;;;19.23;11.00;;;;;;;;;;5039678;28;20249;-81
2022/01/25 03:50:36;;;;;;;16.65;10.07;;;;;;;;;;5039089;28;20407;-81
2022/01/25 03:53:02;;;;;;;19.33;12.07;;;;;;;;;;5044294;28;20306;-81
2022/01/25 03:55:28;;;;;;;19.42;11.05;;;;;;;;;;5044878;28;20178;-82
2022/01/25 03:57:54;;;;;;;16.10;10.75;;;;;;;;;;5044996;28;20206;-81
2022/01/25 04:00:20;;;;;;;22.02;10.63;;;;;;;;;;5044122;28;20189;-79
2022/01/25 04:03:02;;;;;;;16.38;10.02;;;;;;;;;;5044484;28;20182;-79
2022/01/25 04:06:11;;;;;;;22.13;11.93;;;;;;;;;;5045913;28;20182;-80
2022/01/25 04:08:19;;;;;;;21.45;10.55;;;;;;;;;;5041888;28;20229;-80
2022/01/25 04:10:45;;;;;;;16.58;10.93;;;;;;;;;;5042157;28;20246;-80
2022/01/25 04:13:11;;;;;;;18.00;9.85;;;;;;;;;;5044713;28;20197;-80
2022/01/25 04:15:43;;;;;;;23.52;10.95;;;;;;;;;;5045533;28;20177;-81
2022/01/25 04:21:22;;;;;;;19.48;10.95;;;;;;;;;;5042024;28;20192;-79
2022/01/25 04:26:33;;;;;;;16.60;10.40;;;;;;;;;;5040833;28;20197;-79
2022/01/25 04:28:59;;;;;;;22.13;11.07;;;;;;;;;;5042992;28;20206;-79
2022/01/25 04:31:25;;;;;;;20.73;11.25;;;;;;;;;;5041713;28;20497;-79
2022/01/25 04:34:13;;;;;;;18.50;11.13;;;;;;;;;;5034772;28;20186;-79
2022/01/25 04:50:06;;;;;;;20.15;11.30;;;;;;;;;;5041189;28;20216;-79
2022/01/25 04:52:40;;;;;;;15.63;10.52;;;;;;;;;;5043243;28;20188;-79
2022/01/25 04:55:17;;;;;;;22.33;10.93;;;;;;;;;;5043725;28;20173;-79
2022/01/25 04:58:08;;;;;;;20.45;11.82;;;;;;;;;;5044508;28;20176;-79
2022/01/25 05:00:32;;;;;;;22.15;11.40;;;;;;;;;;5044594;28;20182;-80
2022/01/25 05:03:49;;;;;;;23.67;12.57;;;;;;;;;;5041338;28;20178;-79
2022/01/25 05:08:32;;;;;;;20.42;11.60;;;;;;;;;;5040874;28;20222;-80
2022/01/25 05:11:10;;;;;;;28.80;14.02;;;;;;;;;;5042542;28;20579;-79
2022/01/25 05:13:59;;;;;;;22.10;12.10;;;;;;;;;;5040631;28;20182;-79
2022/01/25 05:16:31;;;;;;;21.98;12.80;;;;;;;;;;5025554;28;20185;-79
2022/01/25 05:24:27;;;;;;;23.50;14.15;;;;;;;;;;5043569;28;20736;-80
2022/01/25 05:26:53;;;;;;;23.85;13.75;;;;;;;;;;5042791;28;20643;-80
2022/01/25 05:29:20;;;;;;;19.50;11.40;;;;;;;;;;5042838;28;20206;-80
2022/01/25 05:31:46;;;;;;;27.10;15.68;;;;;;;;;;5040338;28;20190;-80
2022/01/25 05:34:12;;;;;;;22.98;12.77;;;;;;;;;;5042434;28;20174;-80
2022/01/25 05:36:39;;;;;;;20.40;11.88;;;;;;;;;;5045048;28;20622;-81
2022/01/25 05:39:13;;;;;;;22.30;13.85;;;;;;;;;;5042067;28;20194;-81
2022/01/25 05:41:41;;;;;;;20.92;11.65;;;;;;;;;;5041994;28;20194;-80
2022/01/25 05:44:21;;;;;;;29.63;14.48;;;;;;;;;;5042900;28;20212;-80
2022/01/25 05:49:23;;;;;;;31.65;13.65;;;;;;;;;;5042814;28;20817;-80
2022/01/25 05:51:49;;;;;;;24.67;11.90;;;;;;;;;;5043364;28;20188;-79
2022/01/25 05:54:15;;;;;;;33.15;13.75;;;;;;;;;;5041799;28;20178;-80
2022/01/25 05:56:41;;;;;;;31.95;13.80;;;;;;;;;;5042165;28;20650;-79
2022/01/25 05:59:07;;;;;;;27.10;13.88;;;;;;;;;;5042402;28;20244;-80
2022/01/25 06:01:35;;;;;;;22.60;12.57;;;;;;;;;;5041341;28;20193;-79
2022/01/25 06:04:01;;;;;;;32.85;15.48;;;;;;;;;;5041274;28;20170;-78
2022/01/25 06:06:28;;;;;;;30.20;14.07;;;;;;;;;;5040336;28;20261;-79
2022/01/25 06:08:54;;;;;;;25.60;12.80;;;;;;;;;;5038482;28;20316;-79
2022/01/25 06:11:20;;;;;;;32.33;13.88;;;;;;;;;;5040996;28;20682;-79
2022/01/25 06:13:47;;;;;;;32.60;14.77;;;;;;;;;;5041880;28;20193;-79
2022/01/25 06:16:13;;;;;;;20.33;13.90;;;;;;;;;;5040558;28;20628;-79
2022/01/25 06:18:39;;;;;;;26.42;14.10;;;;;;;;;;5043929;28;20238;-79
2022/01/25 06:21:05;;;;;;;24.15;14.85;;;;;;;;;;5039590;28;20189;-79
2022/01/25 06:23:31;;;;;;;29.80;14.77;;;;;;;;;;5041372;28;20193;-80
2022/01/25 06:25:57;;;;;;;29.83;13.93;;;;;;;;;;5040317;28;20186;-79
2022/01/25 06:28:23;;;;;;;34.30;15.23;;;;;;;;;;5040265;28;20217;-78
2022/01/25 06:30:49;;;;;;;29.00;14.93;;;;;;;;;;5043857;28;20253;-79
2022/01/25 06:33:15;;;;;;;31.23;14.40;;;;;;;;;;5040195;28;20582;-80
2022/01/25 06:35:44;;;;;;;30.63;15.20;;;;;;;;;;5041393;28;20665;-79
2022/01/25 06:38:10;;;;;;;30.35;15.40;;;;;;;;;;5041813;28;20177;-80
2022/01/25 06:40:36;;;;;;;21.00;13.05;;;;;;;;;;5041646;28;20186;-80
2022/01/25 06:43:02;;;;;;;28.10;14.00;;;;;;;;;;5040452;28;20198;-80
2022/01/25 06:45:28;;;;;;;24.80;13.68;;;;;;;;;;5041425;28;20170;-80
2022/01/25 06:47:55;;;;;;;24.50;13.88;;;;;;;;;;5040528;28;20190;-80
2022/01/25 06:50:24;;;;;;;26.15;13.60;;;;;;;;;;5039254;28;20181;-81
2022/01/25 06:52:51;;;;;;;25.35;13.98;;;;;;;;;;5039004;28;20181;-80
2022/01/25 06:55:17;;;;;;;22.58;14.75;;;;;;;;;;5039302;28;20197;-81
2022/01/25 06:57:44;;;;;;;26.67;12.98;;;;;;;;;;5040591;28;20245;-82
2022/01/25 07:00:12;;;;;;;15.85;11.45;;;;;;;;;;5041629;28;20197;-81
2022/01/25 07:02:38;;;;;;;18.38;12.02;;;;;;;;;;5038849;28;20213;-81
2022/01/25 07:05:05;;;;;;;24.70;13.43;;;;;;;;;;5040204;28;20539;-81
2022/01/25 07:07:31;;;;;;;17.50;11.60;;;;;;;;;;5038960;28;20234;-81
2022/01/25 07:09:58;;;;;;;21.92;12.85;;;;;;;;;;5040745;28;20244;-81
2022/01/25 07:12:24;;;;;;;27.10;14.93;;;;;;;;;;5039891;28;20189;-82
2022/01/25 07:14:50;;;;;;;20.48;12.30;;;;;;;;;;5041127;28;20178;-81
2022/01/25 07:17:17;;;;;;;17.60;12.00;;;;;;;;;;5037585;28;20261;-82
2022/01/25 07:19:43;;;;;;;20.33;12.85;;;;;;;;;;5037512;28;20213;-82
2022/01/25 07:22:09;;;;;;;30.10;14.15;;;;;;;;;;5041265;28;20178;-82
2022/01/25 07:24:35;;;;;;;21.25;13.15;;;;;;;;;;5041356;28;20189;-83
2022/01/25 07:27:01;;;;;;;21.25;13.20;;;;;;;;;;5044409;28;20205;-83
2022/01/25 07:29:28;;;;;;;23.23;11.75;;;;;;;;;;5043887;28;20201;-83
2022/01/25 07:31:55;;;;;;;17.42;12.43;;;;;;;;;;5043315;28;20205;-83
2022/01/25 07:34:21;;;;;;;20.95;14.30;;;;;;;;;;5044895;28;20180;-83
2022/01/25 07:38:55;;;;;;;24.38;12.25;;;;;;;;;;5126841;27;21026;-82
2022/01/25 07:41:22;;;;;;;23.30;14.40;;;;;;;;;;5095278;28;20183;-83
2022/01/25 07:43:48;;;;;;;22.42;13.43;;;;;;;;;;5095038;28;20190;-83
2022/01/25 07:46:16;;;;;;;27.92;14.25;;;;;;;;;;5092828;28;20171;-83
2022/01/25 07:48:42;;;;;;;20.60;11.65;;;;;;;;;;5088144;28;20190;-82
2022/01/25 07:51:08;;;;;;;17.88;11.90;;;;;;;;;;5096008;28;20236;-82
2022/01/25 07:53:37;;;;;;;21.95;12.50;;;;;;;;;;5091195;28;20183;-83
2022/01/25 07:56:03;;;;;;;24.83;13.48;;;;;;;;;;5092928;28;20191;-82
2022/01/25 07:58:29;;;;;;;21.23;11.90;;;;;;;;;;5095604;28;20246;-83
2022/01/25 08:00:55;;;;;;;19.00;12.23;;;;;;;;;;5095257;28;20171;-82
2022/01/25 08:03:22;;;;;;;23.73;14.30;;;;;;;;;;5106337;28;20258;-82
2022/01/25 08:05:50;;;;;;;18.30;12.40;;;;;;;;;;5087248;28;20179;-82
2022/01/25 08:08:16;;;;;;;18.48;11.95;;;;;;;;;;5088830;28;20180;-81
2022/01/25 08:10:42;;;;;;;17.50;12.13;;;;;;;;;;5093630;28;20210;-82
2022/01/25 08:13:08;;;;;;;25.85;13.07;;;;;;;;;;5091524;28;20179;-82
2022/01/25 08:15:34;;;;;;;20.90;12.07;;;;;;;;;;5091742;28;20205;-82
2022/01/25 08:18:00;;;;;;;22.17;12.40;;;;;;;;;;5092287;28;20219;-81
2022/01/25 08:20:26;;;;;;;23.00;14.15;;;;;;;;;;5093738;28;20176;-82
2022/01/25 08:22:52;;;;;;;19.65;12.65;;;;;;;;;;5094526;28;20180;-82
2022/01/25 08:25:19;;;;;;;17.80;11.00;;;;;;;;;;5095549;28;20175;-82
2022/01/25 08:27:45;;;;;;;18.25;12.40;;;;;;;;;;5097849;28;20221;-82
2022/01/25 08:30:12;;;;;;;28.55;17.48;;;;;;;;;;5112142;28;20190;-82
2022/01/25 08:32:38;;;;;;;22.63;13.82;;;;;;;;;;5094434;28;20546;-82
2022/01/25 08:35:04;;;;;;;26.60;14.23;;;;;;;;;;5095406;28;20648;-82
2022/01/25 08:37:30;;;;;;;23.85;13.43;;;;;;;;;;5101639;28;20287;-83
2022/01/25 08:39:56;;;;;;;23.75;12.48;;;;;;;;;;5113259;28;20203;-82
2022/01/25 08:42:22;;;;;;;24.33;13.60;;;;;;;;;;5110473;28;20612;-81
2022/01/25 08:44:49;;;;;;;23.20;14.57;;;;;;;;;;5112035;28;20191;-82
2022/01/25 08:47:15;;;;;;;25.48;14.45;;;;;;;;;;5112375;28;20198;-82
2022/01/25 08:49:41;;;;;;;22.60;13.63;;;;;;;;;;5100344;28;20208;-82
2022/01/25 08:52:10;;;;;;;26.08;15.60;;;;;;;;;;5100143;28;20691;-81
2022/01/25 08:54:36;;;;;;;27.65;14.52;;;;;;;;;;5092857;28;20346;-81
2022/01/25 08:57:03;;;;;;;17.52;12.18;;;;;;;;;;5093967;28;20212;-81
2022/01/25 08:59:29;;;;;;;28.63;13.93;;;;;;;;;;5092808;28;20204;-82
2022/01/25 09:01:55;;;;;;;28.58;14.50;;;;;;;;;;5090434;28;20196;-82
2022/01/25 09:04:21;;;;;;;26.67;15.40;;;;;;;;;;5095953;28;20606;-83
2022/01/25 09:06:47;;;;;;;27.85;14.85;;;;;;;;;;5099351;28;20191;-82
2022/01/25 09:09:13;;;;;;;24.20;14.55;;;;;;;;;;5085412;28;20215;-82
2022/01/25 09:11:40;;;;;;;27.58;13.85;;;;;;;;;;5097547;28;20180;-82
2022/01/25 09:14:06;;;;;;;23.30;13.70;;;;;;;;;;5099668;28;20183;-83
2022/01/25 09:16:33;;;;;;;24.75;14.57;;;;;;;;;;5098458;28;20237;-82
2022/01/25 09:18:59;;;;;;;20.45;12.88;;;;;;;;;;5094886;28;20210;-82
2022/01/25 09:21:25;;;;;;;32.50;17.00;;;;;;;;;;5104018;28;20258;-82
2022/01/25 09:23:51;;;;;;;29.05;15.60;;;;;;;;;;5095089;28;20356;-82
2022/01/25 09:26:18;;;;;;;28.02;14.35;;;;;;;;;;5098946;28;20184;-82
2022/01/25 09:28:44;;;;;;;24.50;14.40;;;;;;;;;;5097537;28;20235;-82
2022/01/25 09:31:10;;;;;;;28.98;16.10;;;;;;;;;;5103286;28;20198;-82
2022/01/25 09:33:36;;;;;;;25.67;14.77;;;;;;;;;;5103940;28;20176;-81
2022/01/25 09:36:02;;;;;;;25.90;15.38;;;;;;;;;;5097361;28;20192;-81
2022/01/25 09:38:28;;;;;;;25.92;14.77;;;;;;;;;;5090287;28;20251;-81
2022/01/25 09:40:54;;;;;;;26.80;14.90;;;;;;;;;;5099037;28;20206;-81
2022/01/25 09:43:23;;;;;;;26.30;15.25;;;;;;;;;;5084182;28;20181;-81
2022/01/25 09:45:49;;;;;;;24.92;15.68;;;;;;;;;;5102622;28;20176;-81
2022/01/25 09:48:15;;;;;;;27.50;16.02;;;;;;;;;;5101016;28;20188;-81
2022/01/25 09:50:42;;;;;;;30.45;16.80;;;;;;;;;;5095455;28;20188;-82
2022/01/25 09:53:08;;;;;;;27.35;16.38;;;;;;;;;;5099186;28;20183;-81
2022/01/25 09:55:37;;;;;;;27.60;15.95;;;;;;;;;;5091675;28;20191;-82
2022/01/25 09:58:04;;;;;;;30.73;16.58;;;;;;;;;;5100786;28;20227;-84
2022/01/25 10:00:31;;;;;;;28.13;15.63;;;;;;;;;;5096452;28;20261;-83
2022/01/25 10:03:12;;;;;;;24.10;16.40;;;;;;;;;;5093564;28;20183;-83
2022/01/25 10:05:43;;;;;;;29.13;16.30;;;;;;;;;;5096929;28;20172;-83
2022/01/25 10:08:09;;;;;;;28.08;16.67;;;;;;;;;;5094599;28;20675;-83
2022/01/25 10:10:56;;;;;;;27.10;15.63;;;;;;;;;;5087105;28;20184;-84
2022/01/25 10:13:27;;;;;;;28.42;16.52;;;;;;;;;;5090503;28;20191;-84
2022/01/25 10:15:58;;;;;;;28.77;16.17;;;;;;;;;;5092865;28;20181;-83
2022/01/25 10:18:35;;;;;;;26.98;16.50;;;;;;;;;;5101069;28;20204;-84
2022/01/25 10:21:01;;;;;;;30.02;16.60;;;;;;;;;;5088465;28;20761;-85
2022/01/25 10:23:31;;;;;;;24.35;14.18;;;;;;;;;;5093990;28;20188;-84
2022/01/25 10:26:00;;;;;;;23.63;14.35;;;;;;;;;;5092471;28;20180;-84
2022/01/25 10:28:28;;;;;;;30.02;17.80;;;;;;;;;;5086565;28;20195;-85
2022/01/25 10:30:56;;;;;;;30.05;16.13;;;;;;;;;;5091399;28;20222;-85
2022/01/25 10:33:34;;;;;;;29.35;15.98;;;;;;;;;;5099124;28;20183;-89
2022/01/25 10:36:10;;;;;;;31.95;17.58;;;;;;;;;;5093938;28;20180;-87
2022/01/25 10:38:36;;;;;;;29.75;15.52;;;;;;;;;;5092318;28;20253;-85
2022/01/25 10:41:07;;;;;;;23.80;13.80;;;;;;;;;;5100351;28;20183;-85
2022/01/25 10:43:34;;;;;;;26.33;15.40;;;;;;;;;;5096209;28;20231;-85
2022/01/25 10:46:06;;;;;;;26.25;14.43;;;;;;;;;;5097589;28;20271;-85
2022/01/25 10:48:32;;;;;;;26.30;16.00;;;;;;;;;;5098567;28;20179;-86
2022/01/25 10:51:11;;;;;;;28.88;16.88;;;;;;;;;;5097055;28;20271;-85
2022/01/25 10:53:38;;;;;;;27.35;15.10;;;;;;;;;;5099795;28;20221;-85
2022/01/25 10:56:05;;;;;;;25.08;13.75;;;;;;;;;;5098858;28;20175;-84
2022/01/25 10:58:31;;;;;;;28.67;14.80;;;;;;;;;;5097510;28;20259;-85
2022/01/25 11:00:59;;;;;;;37.78;19.15;;;;;;;;;;5103414;28;20186;-86
2022/01/25 11:03:33;;;;;;;30.02;15.70;;;;;;;;;;5098558;28;20701;-85
2022/01/25 11:06:28;;;;;;;34.50;16.13;;;;;;;;;;5089110;28;20378;-85
2022/01/25 11:08:59;;;;;;;34.25;16.70;;;;;;;;;;5079463;28;20279;-85
2022/01/25 11:11:27;;;;;;;28.70;15.07;;;;;;;;;;5093171;28;20199;-85
2022/01/25 11:13:56;;;;;;;27.13;13.98;;;;;;;;;;5092559;28;20198;-86
2022/01/25 11:16:22;;;;;;;27.77;14.63;;;;;;;;;;5081388;28;20623;-86
2022/01/25 11:18:48;;;;;;;28.63;15.98;;;;;;;;;;5094810;28;20226;-86
2022/01/25 11:21:14;;;;;;;28.40;14.02;;;;;;;;;;5089937;28;20234;-86
2022/01/25 11:23:41;;;;;;;28.90;15.75;;;;;;;;;;5097312;28;20176;-85
2022/01/25 11:26:09;;;;;;;28.20;16.20;;;;;;;;;;5091082;28;20244;-85
2022/01/25 11:28:37;;;;;;;21.13;13.90;;;;;;;;;;5099902;28;20221;-84
2022/01/25 11:31:06;;;;;;;29.95;16.33;;;;;;;;;;5097923;28;20528;-85
2022/01/25 11:33:33;;;;;;;30.52;16.77;;;;;;;;;;5101137;28;20179;-85
2022/01/25 11:35:59;;;;;;;32.00;16.70;;;;;;;;;;5098159;28;20190;-85
2022/01/25 11:38:32;;;;;;;27.33;15.30;;;;;;;;;;5098776;28;20239;-85
2022/01/25 11:40:58;;;;;;;28.23;15.38;;;;;;;;;;5096561;28;20664;-83
2022/01/25 11:43:24;;;;;;;31.25;14.98;;;;;;;;;;5088623;28;20744;-86
2022/01/25 11:45:50;;;;;;;31.70;16.55;;;;;;;;;;5094519;28;20194;-86
2022/01/25 11:48:22;;;;;;;29.17;15.93;;;;;;;;;;5096753;28;20305;-85
2022/01/25 11:50:48;;;;;;;32.42;18.02;;;;;;;;;;5097818;28;20260;-85
2022/01/25 11:53:15;;;;;;;30.30;17.90;;;;;;;;;;5095858;28;20618;-86
2022/01/25 11:55:52;;;;;;;31.83;14.32;;;;;;;;;;5098016;28;20191;-85
2022/01/25 11:58:24;;;;;;;43.03;27.33;;;;;;;;;;5098623;28;20210;-86
2022/01/25 12:00:50;;;;;;;27.67;15.02;;;;;;;;;;5101732;28;20176;-86
2022/01/25 12:03:22;;;;;;;27.42;15.50;;;;;;;;;;5096026;28;20215;-86
2022/01/25 12:06:09;;;;;;;30.17;15.48;;;;;;;;;;5098244;28;20187;-86
2022/01/25 12:09:41;;;;;;;44.63;26.55;;;;;;;;;;5093374;28;20580;-85
2022/01/25 12:11:31;;;;;;;43.58;27.77;;;;;;;;;;5087633;28;20271;-86
2022/01/25 12:14:19;;;;;;;29.42;17.33;;;;;;;;;;5089009;28;20271;-86
2022/01/25 12:16:47;;;;;;;37.92;19.90;;;;;;;;;;5083211;28;20189;-86
2022/01/25 12:19:14;;;;;;;28.67;17.15;;;;;;;;;;5096650;28;20177;-85
2022/01/25 12:21:47;;;;;;;95.32;53.88;;;;;;;;;;5091431;28;20168;-85
2022/01/25 12:24:18;;;;;;;57.67;36.40;;;;;;;;;;5092278;28;20449;-86
2022/01/25 12:29:37;;;;;;;27.23;16.65;;;;;;;;;;5095798;28;20176;-85
2022/01/25 12:32:20;;;;;;;32.10;17.02;;;;;;;;;;5093111;28;20221;-86
2022/01/25 12:34:59;;;;;;;35.95;17.45;;;;;;;;;;5095230;28;20180;-85
2022/01/25 12:37:43;;;;;;;37.88;17.70;;;;;;;;;;5079325;28;20283;-86
2022/01/25 12:40:25;;;;;;;35.42;17.15;;;;;;;;;;5064243;28;20236;-86
2022/01/25 12:43:11;;;;;;;30.85;17.27;;;;;;;;;;5065905;28;20649;-85
2022/01/25 12:45:45;;;;;;;38.00;21.98;;;;;;;;;;5057726;28;20193;-86
2022/01/25 12:48:12;;;;;;;47.35;34.05;;;;;;;;;;5060610;28;20210;-85
2022/01/25 12:50:40;;;;;;;36.38;21.77;;;;;;;;;;5075929;28;20187;-84
2022/01/25 12:53:07;;;;;;;33.65;17.70;;;;;;;;;;5070346;28;20200;-85
2022/01/25 12:55:42;;;;;;;37.38;17.90;;;;;;;;;;5065065;28;20201;-85
2022/01/25 12:58:09;;;;;;;28.23;15.93;;;;;;;;;;5060103;28;20208;-86
2022/01/25 13:00:37;;;;;;;35.83;16.90;;;;;;;;;;5062006;28;20637;-85
2022/01/25 13:03:15;;;;;;;29.85;16.35;;;;;;;;;;5062757;28;20234;-84
2022/01/25 13:06:01;;;;;;;38.03;20.05;;;;;;;;;;5055550;28;20218;-91
2022/01/25 13:08:29;;;;;;;33.95;19.13;;;;;;;;;;5059708;28;20208;-77
2022/01/25 13:11:15;;;;;;;32.40;21.00;;;;;;;;;;5055215;28;20772;-76
2022/01/25 13:13:57;;;;;;;39.13;18.98;;;;;;;;;;5069236;28;20196;-76
2022/01/25 13:16:52;;;;;;;37.65;17.15;;;;;;;;;;5063588;28;20256;-76
2022/01/25 13:19:32;;;;;;;31.77;17.08;;;;;;;;;;5038500;28;20231;-75
2022/01/25 13:22:05;;;;;;;32.05;15.32;;;;;;;;;;5080947;28;20168;-75
2022/01/25 13:24:35;;;;;;;35.42;17.60;;;;;;;;;;5066674;28;20169;-76
2022/01/25 13:27:01;;;;;;;29.33;16.45;;;;;;;;;;5059623;28;20188;-76
2022/01/25 13:32:21;;;;;;;35.35;17.60;;;;;;;;;;5070253;28;20204;-76
2022/01/25 13:35:15;;;;;;;26.38;14.38;;;;;;;;;;5074204;28;20184;-76
2022/01/25 13:37:42;;;;;;;32.70;17.15;;;;;;;;;;5068970;28;20224;-77
2022/01/25 13:40:08;;;;;;;32.53;15.55;;;;;;;;;;5097049;28;20176;-77
2022/01/25 13:42:55;;;;;;;27.90;15.77;;;;;;;;;;5103928;28;20180;-76
2022/01/25 13:48:07;;;;;;;33.67;20.48;;;;;;;;;;5097961;28;20214;-76
2022/01/25 13:50:34;;;;;;;27.42;15.45;;;;;;;;;;5089168;28;20326;-77
2022/01/25 13:53:00;;;;;;;31.55;14.60;;;;;;;;;;5101227;28;20192;-77
2022/01/25 13:55:26;;;;;;;28.65;13.80;;;;;;;;;;5090187;28;20191;-76
2022/01/25 13:57:52;;;;;;;28.75;14.57;;;;;;;;;;5105226;28;20199;-76
2022/01/25 14:00:20;;;;;;;26.00;14.68;;;;;;;;;;5098364;28;20179;-76
2022/01/25 14:02:49;;;;;;;29.35;15.63;;;;;;;;;;5095515;28;20184;-76
2022/01/25 14:05:15;;;;;;;28.65;15.43;;;;;;;;;;5090232;28;20179;-76
2022/01/25 14:07:41;;;;;;;30.83;16.40;;;;;;;;;;5085407;28;20192;-76
2022/01/25 14:10:11;;;;;;;30.85;17.38;;;;;;;;;;5085782;28;20188;-76
2022/01/25 14:23:47;;;;;;;25.45;13.02;;;;;;;;;;5098166;28;20211;-76
2022/01/25 14:26:13;;;;;;;28.02;14.07;;;;;;;;;;5094410;28;20177;-76
2022/01/25 14:28:46;;;;;;;26.08;14.23;;;;;;;;;;5092582;28;20204;-76
2022/01/25 14:31:16;;;;;;;23.67;13.13;;;;;;;;;;5100822;28;20176;-76
2022/01/25 14:33:49;;;;;;;29.40;15.07;;;;;;;;;;5101918;28;20188;-76
2022/01/25 14:36:15;;;;;;;29.33;15.05;;;;;;;;;;5098533;28;20191;-76
2022/01/25 14:38:43;;;;;;;23.85;14.48;;;;;;;;;;5071932;28;20228;-77
2022/01/25 14:41:12;;;;;;;28.13;15.48;;;;;;;;;;5051906;28;20184;-77
2022/01/25 14:43:38;;;;;;;22.90;14.65;;;;;;;;;;5053312;28;20310;-76
2022/01/25 14:46:06;;;;;;;28.33;15.73;;;;;;;;;;5078424;28;20232;-75
2022/01/25 14:48:36;;;;;;;31.65;13.93;;;;;;;;;;5063510;28;20180;-76
2022/01/25 14:51:03;;;;;;;22.85;13.52;;;;;;;;;;5076580;28;20188;-76
2022/01/25 14:53:29;;;;;;;23.75;12.38;;;;;;;;;;5056495;28;20180;-76
2022/01/25 14:55:59;;;;;;;24.17;13.70;;;;;;;;;;5059507;28;20177;-75
2022/01/25 14:59:23;;;;;;;25.80;14.45;;;;;;;;;;5062674;28;20212;-76
2022/01/25 15:01:12;;;;;;;21.67;11.90;;;;;;;;;;5071436;28;20184;-75
2022/01/25 15:03:38;;;;;;;26.17;14.38;;;;;;;;;;5062946;28;20176;-76
2022/01/25 15:06:04;;;;;;;23.33;13.40;;;;;;;;;;5059700;28;20251;-76
2022/01/25 15:08:30;;;;;;;28.05;13.68;;;;;;;;;;5074051;28;20208;-78
2022/01/25 15:10:59;;;;;;;23.70;13.10;;;;;;;;;;5079083;28;20220;-77
2022/01/25 15:13:27;;;;;;;24.55;12.20;;;;;;;;;;5052254;28;20192;-76
2022/01/25 15:15:57;;;;;;;24.85;14.27;;;;;;;;;;5051874;28;20272;-88
2022/01/25 15:18:34;;;;;;;29.75;15.30;;;;;;;;;;5057459;28;20226;-85
2022/01/25 15:21:01;;;;;;;31.45;18.33;;;;;;;;;;5072548;28;20653;-87
2022/01/25 15:23:29;;;;;;;30.02;15.95;;;;;;;;;;5062516;28;20181;-86
2022/01/25 15:25:59;;;;;;;25.77;14.55;;;;;;;;;;5062563;28;20191;-85
2022/01/25 15:28:35;;;;;;;27.60;15.40;;;;;;;;;;5059890;28;20210;-87
2022/01/25 15:31:01;;;;;;;26.30;14.52;;;;;;;;;;5060886;28;20374;-84
2022/01/25 15:33:27;;;;;;;23.13;13.52;;;;;;;;;;5061973;28;20295;-85
2022/01/25 15:35:53;;;;;;;28.30;15.77;;;;;;;;;;5058263;28;20205;-85
2022/01/25 15:38:19;;;;;;;28.85;17.83;;;;;;;;;;5087002;28;20810;-86
2022/01/25 15:40:45;;;;;;;24.42;13.82;;;;;;;;;;5097858;28;20180;-85
2022/01/25 15:43:11;;;;;;;23.23;12.48;;;;;;;;;;5087538;28;20176;-84
2022/01/25 15:48:23;;;;;;;21.25;12.65;;;;;;;;;;5100602;28;20225;-85
2022/01/25 15:50:49;;;;;;;26.02;13.80;;;;;;;;;;5094911;28;20190;-85
2022/01/25 15:53:15;;;;;;;27.13;14.32;;;;;;;;;;5089812;28;20192;-86
2022/01/25 15:55:44;;;;;;;31.70;14.88;;;;;;;;;;5085439;28;20199;-84
2022/01/25 15:58:10;;;;;;;24.65;14.55;;;;;;;;;;5099956;28;20196;-86
2022/01/25 16:00:37;;;;;;;24.48;14.48;;;;;;;;;;5091187;28;20279;-86
2022/01/25 16:03:04;;;;;;;25.70;14.02;;;;;;;;;;5099917;28;20194;-85
2022/01/25 16:05:30;;;;;;;25.38;13.88;;;;;;;;;;5102486;28;20184;-85
2022/01/25 16:07:56;;;;;;;26.83;13.88;;;;;;;;;;5101999;28;20210;-86
2022/01/25 16:10:22;;;;;;;32.88;15.50;;;;;;;;;;5102774;28;20722;-85
2022/01/25 16:12:48;;;;;;;23.40;12.93;;;;;;;;;;5088437;28;20168;-85
2022/01/25 16:15:14;;;;;;;26.45;15.00;;;;;;;;;;5094313;28;20590;-86
2022/01/25 16:17:41;;;;;;;28.83;14.98;;;;;;;;;;5096406;28;20230;-86
2022/01/25 16:20:09;;;;;;;29.92;16.38;;;;;;;;;;5103402;28;20533;-86
2022/01/25 16:22:35;;;;;;;27.13;16.70;;;;;;;;;;5095971;28;20176;-86
2022/01/25 16:25:01;;;;;;;29.08;14.70;;;;;;;;;;5102858;28;20172;-86
2022/01/25 16:27:27;;;;;;;36.33;18.95;;;;;;;;;;5101409;28;20178;-86
2022/01/25 16:29:53;;;;;;;37.95;17.70;;;;;;;;;;5100188;28;20179;-88
2022/01/25 16:32:21;;;;;;;24.95;14.75;;;;;;;;;;5094175;28;20284;-87